createdAt,value
2023-04-16T00:07:06.126Z,53.69
2023-04-16T00:22:07.943Z,52.54
2023-04-16T00:37:09.819Z,49.49
2023-04-16T00:52:12.220Z,49.64
2023-04-16T01:07:14.066Z,49.21
2023-04-16T01:22:16.479Z,50.41
2023-04-16T01:37:18.380Z,51.85
2023-04-16T01:52:20.342Z,53.56
2023-04-16T02:07:22.200Z,53.58
2023-04-16T02:22:24.279Z,53.40
2023-04-16T02:37:26.171Z,54.71
2023-04-16T02:52:28.082Z,55.63
2023-04-16T03:07:29.905Z,56.31
2023-04-16T03:22:31.712Z,56.38
2023-04-16T07:14:16.984Z,48.83
2023-04-16T07:29:18.832Z,47.72
2023-04-16T07:44:20.814Z,47.71
2023-04-16T07:59:24.390Z,48.08
2023-04-16T08:14:26.516Z,45.86
2023-04-16T08:29:28.468Z,45.52
2023-04-16T08:44:37.720Z,44.31
2023-04-16T08:59:40.627Z,42.34
2023-04-16T09:14:43.242Z,43.11
2023-04-16T09:29:45.225Z,43.99
2023-04-16T09:44:50.142Z,40.30
2023-04-16T10:00:01.287Z,40.10
2023-04-16T10:15:03.397Z,40.49
2023-04-16T10:30:07.514Z,40.58
2023-04-16T10:45:11.491Z,40.58
2023-04-16T11:00:23.418Z,39.38
2023-04-16T11:15:30.984Z,39.17
2023-04-16T11:30:38.446Z,40.01
2023-04-16T11:45:53.678Z,39.55
2023-04-16T12:00:59.738Z,41.19
2023-04-16T12:16:02.250Z,40.60
2023-04-16T12:31:05.119Z,40.99
2023-04-16T12:46:07.036Z,41.07
2023-04-16T13:01:08.935Z,42.43
2023-04-16T13:16:11.483Z,43.69
2023-04-16T13:31:15.865Z,54.40
2023-04-16T13:46:19.011Z,57.88
2023-04-16T14:01:21.066Z,63.03
2023-04-16T14:16:23.299Z,66.16
2023-04-16T14:31:25.818Z,65.69
2023-04-16T14:46:27.714Z,64.66
2023-04-16T15:01:29.654Z,64.86
2023-04-16T15:16:31.584Z,65.92
2023-04-16T15:31:33.585Z,64.17
2023-04-16T15:46:35.619Z,63.76
2023-04-16T16:01:37.624Z,66.84
2023-04-16T16:16:40.310Z,66.65
2023-04-16T16:31:42.299Z,66.24
2023-04-16T16:46:44.255Z,68.37
2023-04-16T17:01:46.233Z,72.57
2023-04-16T17:16:49.961Z,74.56
2023-04-16T17:31:53.943Z,72.16
2023-04-16T17:46:55.886Z,69.77
2023-04-16T18:01:57.954Z,68.95
2023-04-16T18:17:03.067Z,70.98
2023-04-16T18:32:06.533Z,69.88
2023-04-16T18:47:08.691Z,70.39
2023-04-16T19:02:10.757Z,70.57
2023-04-16T19:17:12.778Z,72.51
2023-04-16T19:32:14.738Z,74.22
2023-04-16T19:47:16.622Z,71.86
2023-04-16T20:02:18.509Z,72.66
2023-04-16T20:17:20.466Z,73.05
2023-04-16T20:32:22.429Z,71.25
2023-04-16T20:47:24.288Z,71.18
2023-04-16T21:02:28.373Z,70.30
2023-04-16T21:17:30.755Z,70.71
2023-04-16T21:32:32.790Z,73.46
2023-04-16T21:47:34.738Z,75.46
2023-04-16T22:02:36.957Z,78.57
2023-04-16T22:17:39.502Z,77.99
2023-04-16T22:32:41.404Z,80.13
2023-04-16T22:47:43.465Z,81.04
2023-04-16T23:02:45.578Z,81.21
2023-04-16T23:17:48.103Z,80.99
2023-04-16T23:32:50.152Z,82.51
2023-04-16T23:47:52.246Z,81.89
